Time;durP1;ratioP1;P1;durP2;ratioP2;P2;SDS_P1;SDS_P2;PMS_P1;PMS_P2;Temp;Humidity;BMP_temperature;BMP_pressure;BME280_temperature;BME280_humidity;BME280_pressure;Samples;Min_cycle;Max_cycle;Signal;HPM_P1;HPM_P2
2024/03/15 00:00:56;;;;;;;;;67.33;49.33;;;;;-143.90;100.00;76495.56;4900982;28;105035;-74
2024/03/15 00:03:23;;;;;;;;;51.33;42.33;;;;;-143.90;100.00;76495.56;4915267;28;102305;-74
2024/03/15 00:05:50;;;;;;;;;60.67;41.67;;;;;-143.90;100.00;76491.44;4924418;28;107131;-70
2024/03/15 00:08:17;;;;;;;;;71.00;51.33;;;;;-143.90;100.00;76491.44;4926379;28;103961;-74
2024/03/15 00:10:44;;;;;;;;;69.00;50.67;;;;;-143.90;100.00;76485.22;4905561;28;102530;-75
2024/03/15 00:13:11;;;;;;;;;63.00;46.67;;;;;-143.90;100.00;76481.09;4907322;28;102138;-73
2024/03/15 00:15:39;;;;;;;;;79.67;56.67;;;;;-143.90;100.00;76479.03;4932590;28;101969;-76
2024/03/15 00:18:07;;;;;;;;;67.67;52.00;;;;;-143.90;100.00;76470.75;4917602;28;103719;-74
2024/03/15 00:20:34;;;;;;;;;55.67;43.00;;;;;-143.90;100.00;76466.63;4914129;28;103035;-74
2024/03/15 00:23:01;;;;;;;;;58.67;42.33;;;;;-143.90;100.00;76462.47;4916039;28;102135;-74
2024/03/15 00:25:28;;;;;;;;;51.67;35.33;;;;;-143.90;100.00;76458.34;4921252;28;102578;-74
2024/03/15 00:27:54;;;;;;;;;41.00;32.00;;;;;-143.90;100.00;76454.22;4908739;28;106850;-74
2024/03/15 00:30:22;;;;;;;;;36.00;32.00;;;;;-143.90;100.00;76441.81;4908632;28;102501;-73
2024/03/15 00:32:51;;;;;;;;;31.67;24.67;;;;;-143.90;100.00;76441.81;4903182;28;101945;-70
2024/03/15 00:35:19;;;;;;;;;29.33;22.67;;;;;-143.90;100.00;76445.94;4921712;28;102182;-73
2024/03/15 00:37:46;;;;;;;;;30.67;22.33;;;;;-143.90;100.00;76437.66;4919186;28;109513;-74
2024/03/15 00:40:13;;;;;;;;;24.00;21.67;;;;;-143.90;100.00;76445.94;4912653;28;103363;-74
2024/03/15 00:42:41;;;;;;;;;20.33;18.00;;;;;-143.90;100.00;76450.06;4917622;28;102545;-74
2024/03/15 00:45:09;;;;;;;;;24.00;22.00;;;;;-143.90;100.00;76454.22;4912322;28;102336;-75
2024/03/15 00:47:36;;;;;;;;;29.33;22.00;;;;;-143.90;100.00;76462.47;4912608;28;103827;-74
2024/03/15 00:50:03;;;;;;;;;19.67;16.33;;;;;-143.90;100.00;76464.56;4921135;28;103021;-74
2024/03/15 00:52:30;;;;;;;;;20.33;18.00;;;;;-143.90;100.00;76460.41;4925311;28;102521;-74
2024/03/15 00:54:57;;;;;;;;;13.33;11.00;;;;;-143.90;100.00;76462.47;4908142;28;102385;-73
2024/03/15 00:57:23;;;;;;;;;41.00;30.00;;;;;-143.90;100.00;76466.63;4923362;28;103889;-74
2024/03/15 00:59:50;;;;;;;;;44.33;32.33;;;;;-143.90;100.00;76462.47;4914810;28;102561;-71
2024/03/15 01:02:16;;;;;;;;;43.33;39.67;;;;;-143.90;100.00;76460.41;4921658;28;103338;-75
2024/03/15 01:04:44;;;;;;;;;33.67;28.67;;;;;-143.90;100.00;76454.22;4912483;28;102066;-74
2024/03/15 01:07:11;;;;;;;;;35.67;29.33;;;;;-143.90;100.00;76462.47;4917084;28;105493;-74
2024/03/15 01:09:37;;;;;;;;;30.67;24.00;;;;;-143.90;100.00;76456.28;4911419;28;102109;-73
2024/03/15 01:12:04;;;;;;;;;25.33;22.33;;;;;-143.90;100.00;76462.47;4915489;28;101976;-74
2024/03/15 01:14:31;;;;;;;;;26.33;22.67;;;;;-143.90;100.00;76466.63;4926232;28;102090;-73
2024/03/15 01:16:58;;;;;;;;;40.67;33.33;;;;;-143.90;100.00;76485.22;4912062;28;104078;-74
2024/03/15 01:19:26;;;;;;;;;54.67;41.00;;;;;-143.90;100.00;76507.97;4924506;28;102526;-73
2024/03/15 01:21:54;;;;;;;;;53.00;42.67;;;;;-143.90;100.00;76512.13;4918691;28;102109;-74
2024/03/15 01:24:21;;;;;;;;;65.33;48.00;;;;;-143.90;100.00;76516.25;4933405;28;102509;-73
2024/03/15 01:26:48;;;;;;;;;51.67;39.67;;;;;-143.90;100.00;76516.25;4912160;28;108770;-72
2024/03/15 01:29:14;;;;;;;;;65.67;43.67;;;;;-143.90;100.00;76516.25;4924456;28;102164;-74
2024/03/15 01:31:41;;;;;;;;;54.33;40.00;;;;;-143.90;100.00;76520.38;4923734;28;102213;-75
2024/03/15 01:34:12;;;;;;;;;89.75;65.25;;;;;-143.90;100.00;76536.94;4929375;28;102456;-73
2024/03/15 01:36:38;;;;;;;;;90.00;66.75;;;;;-143.90;100.00;76543.13;4925298;28;104199;-74
2024/03/15 01:39:05;;;;;;;;;90.25;64.00;;;;;-143.90;100.00;76549.34;4915303;28;102505;-74
2024/03/15 01:41:32;;;;;;;;;91.50;65.50;;;;;-143.90;100.00;76545.22;4916482;28;102137;-74
2024/03/15 01:46:35;;;;;;;;;87.75;65.25;;;;;-143.90;100.00;76553.47;4416640;28;103907;-75
2024/03/15 01:49:02;;;;;;;;;84.50;60.25;;;;;-143.90;100.00;76563.81;4927134;28;102246;-75
2024/03/15 01:51:30;;;;;;;;;89.25;65.25;;;;;-143.90;100.00;76557.63;4931850;28;101610;-75
2024/03/15 01:54:00;;;;;;;;;86.50;62.75;;;;;-143.90;100.00;76553.47;4932800;28;101870;-72
2024/03/15 01:56:27;;;;;;;;;79.50;59.00;;;;;-143.90;100.00;76549.34;4933379;28;103351;-75
2024/03/15 01:58:54;;;;;;;;;72.00;51.75;;;;;-143.90;100.00;76545.22;4931960;28;102235;-72
2024/03/15 02:01:21;;;;;;;;;74.67;59.00;;;;;-143.90;100.00;76553.47;4937710;28;101492;-72
2024/03/15 02:03:48;;;;;;;;;71.33;55.00;;;;;-143.90;100.00;76551.41;4936181;28;101603;-74
2024/03/15 02:06:14;;;;;;;;;62.33;46.33;;;;;-143.90;100.00;76541.06;4930507;28;103755;-72
2024/03/15 02:08:41;;;;;;;;;66.33;50.33;;;;;-143.90;100.00;76536.94;4926995;28;103004;-72
2024/03/15 02:11:10;;;;;;;;;50.33;41.00;;;;;-143.90;100.00;76532.78;4928320;28;101645;-73
2024/03/15 02:13:37;;;;;;;;;66.33;50.00;;;;;-143.90;100.00;76543.13;4952886;28;102476;-73
2024/03/15 02:16:04;;;;;;;;;64.50;49.00;;;;;-143.90;100.00;76551.41;4950309;28;103587;-73
2024/03/15 02:18:31;;;;;;;;;57.75;45.25;;;;;-143.90;100.00;76555.53;4955474;28;103742;-73
2024/03/15 02:20:58;;;;;;;;;85.25;61.75;;;;;-143.90;100.00;76557.63;4944727;28;101939;-73
2024/03/15 02:23:24;;;;;;;;;77.25;57.00;;;;;-143.90;100.00;76553.47;4954855;28;101622;-73
2024/03/15 02:25:55;;;;;;;;;88.50;65.25;;;;;-143.90;100.00;76555.53;4952469;28;106406;-73
2024/03/15 02:28:22;;;;;;;;;92.50;69.25;;;;;-143.90;100.00;76572.09;4954851;28;101676;-73
2024/03/15 02:30:49;;;;;;;;;91.50;67.75;;;;;-143.90;100.00;76570.03;4948901;28;101509;-73
2024/03/15 02:33:15;;;;;;;;;85.75;62.50;;;;;-143.90;100.00;76563.81;4947552;28;101525;-73
2024/03/15 02:35:43;;;;;;;;;86.75;63.50;;;;;-143.90;100.00;76557.63;4950249;28;103572;-73
2024/03/15 02:38:10;;;;;;;;;73.50;55.00;;;;;-143.90;100.00;76561.75;4951154;28;102099;-72
2024/03/15 02:40:37;;;;;;;;;75.67;55.67;;;;;-143.90;100.00;76551.41;4949642;28;101993;-73
2024/03/15 02:43:03;;;;;;;;;78.00;60.25;;;;;-143.90;100.00;76553.47;4945892;28;104285;-73
2024/03/15 02:45:30;;;;;;;;;70.50;54.25;;;;;-143.90;100.00;76565.88;4950415;28;103517;-72
2024/03/15 02:47:58;;;;;;;;;18.00;4.75;;;;;-143.90;100.00;76567.97;4948268;28;101524;-73
2024/03/15 02:50:24;;;;;;;;;72.75;59.00;;;;;-143.90;100.00;76570.03;4956126;28;101667;-72
2024/03/15 02:52:52;;;;;;;;;74.00;55.00;;;;;-143.90;100.00;76572.09;4949565;28;101562;-72
2024/03/15 02:55:19;;;;;;;;;62.00;46.00;;;;;-143.90;100.00;76561.75;4953441;28;107891;-72
2024/03/15 02:57:46;;;;;;;;;65.67;47.00;;;;;-143.90;100.00;76563.81;4952508;28;102244;-72
2024/03/15 03:00:13;;;;;;;;;46.67;35.67;;;;;-143.90;100.00;76561.75;4946848;28;101704;-73
2024/03/15 03:02:40;;;;;;;;;33.67;33.67;;;;;-143.90;100.00;76561.75;4946296;28;103404;-73
2024/03/15 03:05:08;;;;;;;;;47.00;41.33;;;;;-143.90;100.00;76563.81;4947287;28;103597;-73
2024/03/15 03:07:35;;;;;;;;;48.33;32.00;;;;;-143.90;100.00;76561.75;4950018;28;102239;-72
2024/03/15 03:10:03;;;;;;;;;33.67;30.67;;;;;-143.90;100.00;76561.75;4954090;28;102290;-72
2024/03/15 03:12:32;;;;;;;;;44.00;38.33;;;;;-143.90;100.00;76561.75;4952751;28;101757;-73
2024/03/15 03:14:58;;;;;;;;;53.00;45.00;;;;;-143.90;100.00;76574.16;4948200;28;103453;-72
2024/03/15 03:17:25;;;;;;;;;46.00;38.67;;;;;-143.90;100.00;76570.03;4944510;28;101976;-72
2024/03/15 03:19:52;;;;;;;;;43.67;36.00;;;;;-143.90;100.00;76565.88;4952030;28;101797;-72
2024/03/15 03:22:18;;;;;;;;;44.67;32.33;;;;;-143.90;100.00;76565.88;4957966;28;101366;-73
2024/03/15 03:24:46;;;;;;;;;43.00;37.00;;;;;-143.90;100.00;76555.53;4949886;28;103383;-73
2024/03/15 03:27:13;;;;;;;;;34.67;31.67;;;;;-143.90;100.00;76559.69;4933320;28;101847;-73
2024/03/15 03:29:40;;;;;;;;;38.67;32.33;;;;;-143.90;100.00;76553.47;4948325;28;103780;-72
2024/03/15 03:32:06;;;;;;;;;30.33;26.33;;;;;-143.90;100.00;76557.63;4948945;28;103685;-72
2024/03/15 03:34:38;;;;;;;;;28.00;22.67;;;;;-143.90;100.00;76557.63;4958798;28;103390;-73
2024/03/15 03:37:04;;;;;;;;;28.33;26.67;;;;;-143.90;100.00;76563.81;4944625;28;101922;-72
2024/03/15 03:39:31;;;;;;;;;30.00;27.00;;;;;-143.90;100.00;76551.41;4954245;28;101747;-72
2024/03/15 03:41:58;;;;;;;;;25.00;18.00;;;;;-143.90;100.00;76545.22;4951486;28;101699;-73
2024/03/15 03:44:26;;;;;;;;;23.00;20.33;;;;;-143.90;100.00;76543.13;4953317;28;103371;-72
2024/03/15 03:46:53;;;;;;;;;31.00;25.33;;;;;-143.90;100.00;76545.22;4940793;28;102367;-72
2024/03/15 03:49:20;;;;;;;;;19.67;18.00;;;;;-143.90;100.00;76551.41;4956579;28;101833;-72
2024/03/15 03:51:47;;;;;;;;;36.33;30.33;;;;;-143.90;100.00;76549.34;4957367;28;102141;-72
2024/03/15 03:54:14;;;;;;;;;44.67;34.33;;;;;-143.90;100.00;76549.34;4952086;28;103743;-72
2024/03/15 03:56:41;;;;;;;;;26.67;25.33;;;;;-143.90;100.00;76547.28;4948139;28;101760;-73
2024/03/15 03:59:08;;;;;;;;;33.00;26.00;;;;;-143.90;100.00;76541.06;4943077;28;101623;-72
2024/03/15 04:01:35;;;;;;;;;23.33;21.33;;;;;-143.90;100.00;76528.66;4956381;28;102552;-73
2024/03/15 04:04:01;;;;;;;;;18.33;17.33;;;;;-143.90;100.00;76528.66;4946823;28;103683;-73
2024/03/15 04:06:28;;;;;;;;;19.33;15.33;;;;;-143.90;100.00;76526.59;4956401;28;101868;-72
2024/03/15 04:08:55;;;;;;;;;26.67;20.33;;;;;-143.90;100.00;76526.59;4940112;28;101754;-73
2024/03/15 04:11:21;;;;;;;;;22.67;18.67;;;;;-143.90;100.00;76522.47;4952662;28;101899;-73
2024/03/15 04:13:49;;;;;;;;;33.67;29.00;;;;;-143.90;100.00;76522.47;4950534;28;107508;-72
2024/03/15 04:16:16;;;;;;;;;36.33;31.67;;;;;-143.90;100.00;76522.47;4952803;28;101701;-72
2024/03/15 04:18:42;;;;;;;;;36.33;30.00;;;;;-143.90;100.00;76530.72;4953362;28;101675;-73
2024/03/15 04:21:10;;;;;;;;;26.67;25.33;;;;;-143.90;100.00;76532.78;4948163;28;101982;-73
2024/03/15 04:23:38;;;;;;;;;40.33;33.33;;;;;-143.90;100.00;76528.66;4953077;28;103341;-73
2024/03/15 04:26:05;;;;;;;;;29.67;26.00;;;;;-143.90;100.00;76530.72;4949167;28;101736;-72
2024/03/15 04:28:32;;;;;;;;;25.67;21.67;;;;;-143.90;100.00;76528.66;4950238;28;101643;-73
2024/03/15 04:30:58;;;;;;;;;28.00;20.33;;;;;-143.90;100.00;76532.78;4941349;28;101583;-74
2024/03/15 04:33:25;;;;;;;;;34.00;27.33;;;;;-143.90;100.00;76528.66;4952382;28;103573;-73
2024/03/15 04:35:52;;;;;;;;;34.33;28.33;;;;;-143.90;100.00;76526.59;4957254;28;102008;-73
2024/03/15 04:38:18;;;;;;;;;37.67;29.33;;;;;-143.90;100.00;76528.66;4953467;28;101709;-73
2024/03/15 04:40:47;;;;;;;;;26.33;24.00;;;;;-143.90;100.00;76526.59;4950166;28;101587;-73
2024/03/15 04:43:14;;;;;;;;;43.33;40.67;;;;;-143.90;100.00;76524.53;4948376;28;103569;-73
2024/03/15 04:45:40;;;;;;;;;52.33;41.00;;;;;-143.90;100.00;76524.53;4948184;28;101960;-73
2024/03/15 04:48:07;;;;;;;;;61.67;48.00;;;;;-143.90;100.00;76520.38;4950012;28;101918;-73
2024/03/15 04:50:35;;;;;;;;;41.33;38.00;;;;;-143.90;100.00;76516.25;4958922;28;102171;-73
2024/03/15 04:53:02;;;;;;;;;68.50;54.75;;;;;-143.90;100.00;76528.66;4946781;28;103556;-73
2024/03/15 04:55:29;;;;;;;;;83.75;60.75;;;;;-143.90;100.00;76532.78;4949303;28;102362;-73
2024/03/15 04:57:58;;;;;;;;;75.00;52.50;;;;;-143.90;100.00;76524.53;4945067;28;101544;-73
2024/03/15 05:00:25;;;;;;;;;65.00;50.00;;;;;-143.90;100.00;76536.94;4948332;28;101613;-73
2024/03/15 05:02:52;;;;;;;;;64.67;49.33;;;;;-143.90;100.00;76534.88;4943049;28;103372;-73
2024/03/15 05:05:21;;;;;;;;;56.00;45.33;;;;;-143.90;100.00;76524.53;4945931;28;101919;-73
2024/03/15 05:07:48;;;;;;;;;46.33;38.33;;;;;-143.90;100.00;76520.38;4948705;28;101557;-73
2024/03/15 05:10:16;;;;;;;;;46.67;37.33;;;;;-143.90;100.00;76520.38;4950152;28;101605;-72
2024/03/15 05:12:44;;;;;;;;;55.33;46.00;;;;;-143.90;100.00;76520.38;4944458;28;104222;-73
2024/03/15 05:15:12;;;;;;;;;53.33;37.00;;;;;-143.90;100.00;76522.47;4942538;28;101745;-73
2024/03/15 05:17:39;;;;;;;;;58.33;44.00;;;;;-143.90;100.00;76524.53;4943345;28;101820;-72
2024/03/15 05:20:10;;;;;;;;;53.33;42.33;;;;;-143.90;100.00;76520.38;4945162;28;103268;-73
2024/03/15 05:22:37;;;;;;;;;36.00;32.67;;;;;-143.90;100.00;76518.31;4947560;28;103286;-73
2024/03/15 05:25:09;;;;;;;;;33.00;30.00;;;;;-143.90;100.00;76518.31;4942678;28;101872;-72
2024/03/15 05:27:35;;;;;;;;;40.33;28.33;;;;;-143.90;100.00;76514.19;4947392;28;101847;-73
2024/03/15 05:30:04;;;;;;;;;47.33;38.67;;;;;-143.90;100.00;76512.13;4945935;28;102043;-72
2024/03/15 05:32:30;;;;;;;;;46.67;35.67;;;;;-143.90;100.00;76501.78;4943889;28;103900;-73
2024/03/15 05:34:57;;;;;;;;;48.33;36.67;;;;;-143.90;100.00;76507.97;4939571;28;101628;-72
2024/03/15 05:37:26;;;;;;;;;60.00;43.00;;;;;-143.90;100.00;76514.19;4951836;28;102137;-73
2024/03/15 05:39:53;;;;;;;;;55.00;43.00;;;;;-143.90;100.00;76522.47;4954536;28;101894;-73
2024/03/15 05:42:19;;;;;;;;;50.00;40.67;;;;;-143.90;100.00;76507.97;4950235;28;103352;-73
2024/03/15 05:44:47;;;;;;;;;56.33;44.00;;;;;-143.90;100.00;76507.97;4946404;28;101940;-73
2024/03/15 05:47:16;;;;;;;;;44.67;39.00;;;;;-143.90;100.00;76495.56;4950985;28;102403;-73
2024/03/15 05:49:43;;;;;;;;;51.00;40.33;;;;;-143.90;100.00;76499.72;4958483;28;102096;-73
2024/03/15 05:52:10;;;;;;;;;40.33;33.33;;;;;-143.90;100.00;76516.25;4951117;28;103999;-72
2024/03/15 05:54:37;;;;;;;;;40.00;32.33;;;;;-143.90;100.00;76518.31;4946467;28;101651;-72
2024/03/15 05:57:04;;;;;;;;;45.33;34.67;;;;;-143.90;100.00;76507.97;4955995;28;101739;-75
2024/03/15 05:59:31;;;;;;;;;22.33;20.33;;;;;-143.90;100.00;76495.56;4953398;28;101491;-75
2024/03/15 06:01:57;;;;;;;;;81.67;58.33;;;;;-143.90;100.00;76472.81;4950600;28;103340;-74
2024/03/15 06:04:24;;;;;;;;;52.67;37.33;;;;;-143.90;100.00;76474.91;4946588;28;101773;-74
2024/03/15 06:06:51;;;;;;;;;36.33;29.33;;;;;-143.90;100.00;76468.69;4940451;28;102142;-75
2024/03/15 06:09:19;;;;;;;;;54.67;44.00;;;;;-143.90;100.00;76489.38;4958765;28;101872;-75
2024/03/15 06:11:48;;;;;;;;;52.00;41.33;;;;;-143.90;100.00;76485.22;4948227;28;103463;-75
2024/03/15 06:14:14;;;;;;;;;51.67;41.00;;;;;-143.90;100.00;76474.91;4954349;28;101658;-74
2024/03/15 06:16:41;;;;;;;;;44.00;38.00;;;;;-143.90;100.00;76474.91;4952189;28;101628;-75
2024/03/15 06:19:08;;;;;;;;;50.00;41.00;;;;;-143.90;100.00;76487.31;4947857;28;102044;-74
2024/03/15 06:21:36;;;;;;;;;41.33;36.33;;;;;-143.90;100.00;76462.47;4948437;28;103444;-75
2024/03/15 06:24:04;;;;;;;;;42.33;34.33;;;;;-143.90;100.00;76443.88;4947466;28;102174;-74
2024/03/15 06:26:30;;;;;;;;;65.67;48.00;;;;;-143.90;100.00;76450.06;4959334;28;101556;-74
2024/03/15 06:28:57;;;;;;;;;48.00;41.00;;;;;-143.90;100.00;76421.13;4949563;28;102704;-75
2024/03/15 06:31:27;;;;;;;;;73.00;53.67;;;;;-143.90;100.00;76400.44;4953592;28;103663;-74
2024/03/15 06:33:56;;;;;;;;;58.33;42.00;;;;;-143.90;100.00;76388.03;4951937;28;101682;-75
2024/03/15 06:36:29;;;;;;;;;59.67;45.00;;;;;-143.90;100.00;76375.63;4954912;28;101528;-75
2024/03/15 06:39:08;;;;;;;;;81.33;56.67;;;;;-143.90;100.00;76367.34;4943391;28;101604;-74
2024/03/15 06:41:40;;;;;;;;;77.00;56.67;;;;;-143.90;100.00;76375.63;4951032;28;103411;-74
2024/03/15 06:49:43;;;;;;;;;58.00;47.00;;;;;-143.90;100.00;76297.03;4951271;28;102037;-74
2024/03/15 06:54:56;;;;;;;;;47.33;37.33;;;;;-143.90;100.00;76259.81;4938281;28;104768;-75
2024/03/15 06:57:23;;;;;;;;;41.33;34.00;;;;;-143.90;100.00;76257.75;4952307;28;102067;-75
2024/03/15 06:59:50;;;;;;;;;45.33;32.00;;;;;-143.90;100.00;76241.22;4956632;28;101818;-76
2024/03/15 07:02:17;;;;;;;;;29.67;29.67;;;;;-143.90;100.00;76226.72;4956033;28;107331;-76
2024/03/15 07:04:44;;;;;;;;;42.67;34.33;;;;;-143.90;100.00;76201.91;4951721;28;102100;-78
2024/03/15 07:07:13;;;;;;;;;30.67;29.67;;;;;-143.90;100.00;76177.09;4946545;28;101532;-76
2024/03/15 07:09:40;;;;;;;;;38.33;29.67;;;;;-143.90;100.00;76179.16;4950737;28;101913;-78
2024/03/15 07:12:08;;;;;;;;;39.33;38.00;;;;;-143.90;100.00;76160.56;4948294;28;103360;-76
2024/03/15 07:14:35;;;;;;;;;57.00;44.67;;;;;-143.90;100.00;76175.03;4942821;28;102960;-77
2024/03/15 07:17:04;;;;;;;;;47.33;39.33;;;;;-143.90;100.00;76139.88;4941948;28;102053;-78
2024/03/15 07:19:32;;;;;;;;;37.33;35.00;;;;;-143.90;100.00;76108.84;4951140;28;101705;-76
2024/03/15 07:21:59;;;;;;;;;40.50;31.00;;;;;-143.90;100.00;76086.13;4949052;28;103438;-76
2024/03/15 07:24:26;;;;;;;;;30.75;24.75;;;;;-143.90;100.00;76057.16;4946288;28;101892;-77
2024/03/15 07:26:53;;;;;;;;;30.00;26.00;;;;;-143.90;100.00;76030.28;4940449;28;101652;-75
2024/03/15 07:29:19;;;;;;;;;25.00;19.50;;;;;-143.90;100.00;76005.47;4949096;28;101476;-76
2024/03/15 07:31:46;;;;;;;;;19.50;17.25;;;;;-143.90;100.00;75976.53;4951403;28;103771;-76
2024/03/15 07:34:13;;;;;;;;;18.25;15.25;;;;;-143.90;100.00;75949.63;4955383;28;101802;-76
2024/03/15 07:36:40;;;;;;;;;21.75;18.75;;;;;-143.90;100.00;75933.09;4952518;28;101748;-77
2024/03/15 07:39:07;;;;;;;;;18.00;14.00;;;;;-143.90;100.00;75910.34;4946951;28;104046;-76
2024/03/15 07:41:34;;;;;;;;;19.00;15.25;;;;;-143.90;100.00;75893.81;4945888;28;103622;-76
2024/03/15 07:44:01;;;;;;;;;34.00;27.00;;;;;-143.90;100.00;75866.94;4946819;28;102370;-77
2024/03/15 07:46:27;;;;;;;;;34.25;30.25;;;;;-143.90;100.00;75842.13;4946204;28;103269;-75
2024/03/15 07:48:54;;;;;;;;;35.50;30.75;;;;;-143.90;100.00;75837.97;4945330;28;101798;-76
2024/03/15 07:51:23;;;;;;;;;36.50;30.75;;;;;-143.90;100.00;75800.75;4948857;28;103407;-75
2024/03/15 07:53:50;;;;;;;;;27.50;23.25;;;;;-143.90;100.00;75773.88;4946875;28;101833;-76
2024/03/15 07:56:17;;;;;;;;;27.25;22.75;;;;;-143.90;100.00;75751.13;4948653;28;101851;-75
2024/03/15 07:58:43;;;;;;;;;14.00;12.25;;;;;-143.90;100.00;75722.19;4944431;28;101653;-76
2024/03/15 08:01:10;;;;;;;;;21.25;18.50;;;;;-143.90;100.00;75703.56;4945334;28;103656;-78
2024/03/15 08:03:37;;;;;;;;;17.75;17.00;;;;;-143.90;100.00;75672.56;4947296;28;103550;-77
2024/03/15 08:06:06;;;;;;;;;13.25;12.25;;;;;-143.90;100.00;75647.75;4947465;28;101838;-76
2024/03/15 08:08:33;;;;;;;;;17.25;15.75;;;;;-143.90;100.00;75622.94;4950015;28;104842;-77
2024/03/15 08:11:02;;;;;;;;;18.75;17.75;;;;;-143.90;100.00;75594.00;4943162;28;103609;-75
2024/03/15 08:13:33;;;;;;;;;27.50;21.25;;;;;-143.90;100.00;75585.72;4950064;28;102278;-74
2024/03/15 08:16:18;;;;;;;;;25.50;18.25;;;;;-143.90;100.00;75556.78;4947689;28;104067;-74
2024/03/15 08:18:48;;;;;;;;;19.00;17.00;;;;;-143.90;100.00;75525.75;4948233;28;103247;-73
2024/03/15 08:21:16;;;;;;;;;12.50;12.00;;;;;-143.90;100.00;75496.81;4947382;28;103287;-72
2024/03/15 08:23:45;;;;;;;;;15.50;13.25;;;;;-143.90;100.00;75463.72;4948333;28;102002;-73
2024/03/15 08:26:12;;;;;;;;;18.25;15.00;;;;;-143.90;100.00;75447.19;4933667;28;101851;-71
2024/03/15 08:28:41;;;;;;;;;15.00;13.00;;;;;-143.90;100.00;75416.19;4948047;28;101777;-77
2024/03/15 08:31:08;;;;;;;;;23.50;19.50;;;;;-143.90;100.00;75391.38;4942689;28;103689;-79
2024/03/15 08:33:35;;;;;;;;;19.00;17.00;;;;;-143.90;100.00;75366.56;4950164;28;102098;-77
2024/03/15 08:36:02;;;;;;;;;18.75;16.00;;;;;-143.90;100.00;75329.34;4951238;28;101794;-78
2024/03/15 08:38:30;;;;;;;;;16.25;15.25;;;;;-143.90;100.00;75308.66;4944935;28;101865;-78
2024/03/15 08:40:56;;;;;;;;;17.75;17.00;;;;;-143.90;100.00;75279.72;4940187;28;103340;-79
2024/03/15 08:43:23;;;;;;;;;18.25;15.50;;;;;-143.90;100.00;75271.47;4951147;28;101976;-79
2024/03/15 08:45:50;;;;;;;;;23.50;16.50;;;;;-143.90;100.00;75259.06;4947869;28;101511;-79
2024/03/15 08:48:17;;;;;;;;;15.50;14.50;;;;;-143.90;100.00;75246.66;4953085;28;101905;-79
2024/03/15 08:50:46;;;;;;;;;11.75;9.75;;;;;-143.90;100.00;75232.19;4943485;28;103285;-79
2024/03/15 08:53:13;;;;;;;;;12.00;8.75;;;;;-143.90;100.00;75207.38;4946316;28;101820;-79
2024/03/15 08:55:42;;;;;;;;;11.25;11.00;;;;;-143.90;100.00;75192.91;4948374;28;101977;-80
2024/03/15 08:58:10;;;;;;;;;12.75;10.00;;;;;-143.90;100.00;75178.41;4946330;28;101579;-77
2024/03/15 09:00:39;;;;;;;;;13.50;10.25;;;;;-143.90;100.00;75166.03;4946802;28;103416;-78
2024/03/15 09:03:06;;;;;;;;;12.75;11.75;;;;;-143.90;100.00;75137.06;4946060;28;101975;-79
2024/03/15 09:05:38;;;;;;;;;18.50;17.50;;;;;-143.90;76.99;75137.06;4947864;28;102339;-76
2024/03/15 09:08:06;;;;;;;;;14.50;14.50;;;;;-143.90;74.12;75106.06;4945367;28;102205;-77
2024/03/15 09:10:33;;;;;;;;;24.75;20.00;;;;;-143.90;68.22;75122.59;4943192;28;105814;-77
2024/03/15 09:13:00;;;;;;;;;23.00;20.25;;;;;-143.90;70.99;75099.88;4943951;28;101897;-78
2024/03/15 09:15:27;;;;;;;;;19.25;14.75;;;;;-143.90;73.11;75087.47;4945896;28;101480;-81
2024/03/15 09:17:58;;;;;;;;;18.00;15.50;;;;;-143.90;71.03;75060.59;4949418;28;105661;-76
2024/03/15 09:20:33;;;;;;;;;17.50;13.00;;;;;-143.90;70.79;75048.19;4948269;28;107785;-77
2024/03/15 09:23:03;;;;;;;;;15.75;14.50;;;;;-143.90;67.95;75025.44;4942647;28;101861;-77
2024/03/15 09:25:30;;;;;;;;;11.00;10.00;;;;;-143.90;70.37;75004.75;4943742;28;103892;-76
2024/03/15 09:27:59;;;;;;;;;15.25;13.50;;;;;-143.90;67.03;74994.44;4947240;28;101633;-75
2024/03/15 09:30:29;;;;;;;;;16.75;15.25;;;;;-143.90;67.48;74990.28;4949167;28;102522;-75
2024/03/15 09:32:56;;;;;;;;;13.50;11.25;;;;;-143.90;68.16;74979.97;4942981;28;101612;-76
2024/03/15 09:35:25;;;;;;;;;19.50;16.00;;;;;-143.90;63.82;74973.75;4950360;28;101556;-76
2024/03/15 09:37:52;;;;;;;;;7.50;5.75;;;;;-143.90;65.51;74953.09;4954159;28;101572;-76
2024/03/15 09:40:25;;;;;;;;;12.25;12.00;;;;;-143.90;64.38;74940.69;4958615;28;103602;-77
2024/03/15 09:42:55;;;;;;;;;12.25;11.25;;;;;-143.90;64.74;74917.94;4943385;28;101854;-75
2024/03/15 09:45:22;;;;;;;;;11.75;10.00;;;;;-143.90;64.04;74903.47;4953828;28;101693;-76
2024/03/15 09:47:50;;;;;;;;;9.00;9.00;;;;;-143.90;61.24;74895.19;4953399;28;101763;-79
2024/03/15 09:50:23;;;;;;;;;11.75;10.50;;;;;-143.90;64.21;74880.72;4946420;28;103364;-76
2024/03/15 09:52:51;;;;;;;;;18.00;13.00;;;;;-143.90;59.20;74870.38;4938993;28;101901;-75
2024/03/15 09:55:19;;;;;;;;;21.00;20.00;;;;;-143.90;58.54;74882.78;4947693;28;101722;-75
2024/03/15 09:57:48;;;;;;;;;21.50;19.50;;;;;-143.90;59.10;74893.13;4950858;28;101584;-75
2024/03/15 10:00:23;;;;;;;;;17.25;13.50;;;;;-143.90;59.08;74872.47;4950824;28;103358;-75
2024/03/15 10:02:53;;;;;;;;;14.75;11.25;;;;;-143.90;60.84;74858.00;4942664;28;101757;-76
2024/03/15 10:05:21;;;;;;;;;11.50;10.00;;;;;-143.90;57.75;74831.13;4949704;28;102991;-76
2024/03/15 10:07:49;;;;;;;;;9.25;8.25;;;;;-143.90;57.97;74812.50;4946865;28;102028;-76
2024/03/15 10:10:17;;;;;;;;;14.25;11.75;;;;;-143.90;55.00;74812.50;4952150;28;103442;-77
2024/03/15 10:12:45;;;;;;;;;10.25;10.00;;;;;-143.90;54.74;74800.09;4953771;28;103092;-76
2024/03/15 10:15:16;;;;;;;;;10.00;9.00;;;;;-143.90;53.87;74787.69;4952840;28;101587;-75
2024/03/15 10:17:48;;;;;;;;;8.50;8.25;;;;;-143.90;54.54;74777.38;4952900;28;102518;-75
2024/03/15 10:20:18;;;;;;;;;15.25;12.75;;;;;-143.90;50.81;74779.44;4952174;28;103345;-74
2024/03/15 10:22:45;;;;;;;;;24.50;18.75;;;;;-143.90;50.75;74798.03;4946905;28;102014;-76
2024/03/15 10:25:18;;;;;;;;;16.25;14.50;;;;;-143.90;52.43;74767.03;4947761;28;101563;-76
2024/03/15 10:27:48;;;;;;;;;11.00;11.00;;;;;-143.90;51.78;74744.28;4955022;28;102673;-75
2024/03/15 10:30:17;;;;;;;;;13.75;13.50;;;;;-143.90;51.54;74721.56;4947888;28;104554;-76
2024/03/15 10:32:47;;;;;;;;;17.50;16.75;;;;;-143.90;50.97;74721.56;4950351;28;101945;-76
2024/03/15 10:35:15;;;;;;;;;13.75;12.50;;;;;-143.90;50.75;74686.41;4948766;28;102711;-77
2024/03/15 10:37:47;;;;;;;;;8.75;7.75;;;;;-143.90;49.58;74669.88;4953622;28;102627;-79
2024/03/15 10:40:25;;;;;;;;;19.75;15.00;;;;;-143.90;49.48;74705.00;4947850;28;103361;-78
2024/03/15 10:42:53;;;;;;;;;15.25;13.75;;;;;-143.90;48.47;74682.28;4941041;28;101819;-75
2024/03/15 10:45:24;;;;;;;;;15.75;14.75;;;;;-143.90;48.30;74676.06;4949252;28;102901;-75
2024/03/15 10:47:52;;;;;;;;;12.75;10.75;;;;;-143.90;49.28;74661.59;4954754;28;101954;-76
2024/03/15 10:50:21;;;;;;;;;14.50;12.00;;;;;-143.90;48.47;74636.81;4952146;28;107943;-77
2024/03/15 10:52:52;;;;;;;;;8.75;7.25;;;;;-143.90;47.07;74622.34;4944530;28;102407;-77
2024/03/15 10:55:25;;;;;;;;;14.25;12.50;;;;;-143.90;48.54;74614.06;4951087;28;103762;-79
2024/03/15 10:58:00;;;;;;;;;11.00;9.00;;;;;-143.90;48.17;74622.34;4954185;28;101951;-77
2024/03/15 11:00:28;;;;;;;;;11.75;10.00;;;;;-143.90;47.26;74624.41;4943528;28;107882;-77
2024/03/15 11:02:57;;;;;;;;;12.75;10.75;;;;;-143.90;49.00;74634.72;4945429;28;102755;-75